Alexandra G — SY8484 — position and weather

sailwx.info

Track history (hours):
 
Tides and Currents Weather Stations Pressure Air Temp Water Temp Dewpoint Dewpoint Depression Visibility Wind Speed Wind Dir Waves Ship Positions

Alexandra G

Last reported at 2017-Oct-20 07:00 UTC. Time now 2017-Oct-20 07:23 UTC.
Position N 37°57' E 023°38'.

Length 74 m; draft 3.7 m.

Type: Ship (hazmat cat A). MMSI: 240688000.

Date/timePositionNaut miles runAvg speedWind from/ knotsBaromVisibWave heightAir tempDewpointWater temp
2017-Oct-20 07:00N 37°57' E 023°38'0 0.0
2017-Oct-20 06:30N 37°57' E 023°38'0 0.0
2017-Oct-20 06:00N 37°57' E 023°38'2 3.7
2017-Oct-20 05:30N 37°57' E 023°36'1 1.8
2017-Oct-20 05:00N 37°58' E 023°37'0 0.0
2017-Oct-20 04:31N 37°58' E 023°37'0 0.0
2017-Oct-20 04:00N 37°58' E 023°37'0 0.0
2017-Oct-20 03:30N 37°58' E 023°37'0 0.0
2017-Oct-20 03:00N 37°58' E 023°37'0 0.0
2017-Oct-20 02:30N 37°58' E 023°37'0 0.0
2017-Oct-20 02:00N 37°58' E 023°37'0 0.0
2017-Oct-20 01:30N 37°58' E 023°37'0 0.0
2017-Oct-20 01:00N 37°58' E 023°37'0 0.0
2017-Oct-20 00:30N 37°58' E 023°37'0 0.0
2017-Oct-20 00:00N 37°58' E 023°37'0 0.0
2017-Oct-19 23:30N 37°58' E 023°37'0 0.0
2017-Oct-19 23:00N 37°58' E 023°37'0 0.0
2017-Oct-19 22:30N 37°58' E 023°37'0 0.0
2017-Oct-19 22:00N 37°58' E 023°37'0 0.0
2017-Oct-19 21:30N 37°58' E 023°37'0 0.0
2017-Oct-19 21:00N 37°58' E 023°37'0 0.0
2017-Oct-19 20:30N 37°58' E 023°37'0 0.0
2017-Oct-19 20:01N 37°58' E 023°37'0 0.0
2017-Oct-19 19:30N 37°58' E 023°37'0 0.0
2017-Oct-19 19:00N 37°58' E 023°37'0 0.0
2017-Oct-19 18:31N 37°58' E 023°37'0 0.0
2017-Oct-19 18:00N 37°58' E 023°37'0 0.0
2017-Oct-19 17:30N 37°58' E 023°37'0 0.0
2017-Oct-19 17:00N 37°58' E 023°37'0 0.0
2017-Oct-19 16:30N 37°58' E 023°37'0 0.0
2017-Oct-19 16:00N 37°58' E 023°37'0 0.0
2017-Oct-19 15:30N 37°58' E 023°37'3 5.1
2017-Oct-19 15:00N 37°56' E 023°34'4 7.8
2017-Oct-19 14:30N 37°52' E 023°32'0 0.0
2017-Oct-19 14:00N 37°52' E 023°32'0 0.1
2017-Oct-19 13:30N 37°52' E 023°32'0 0.0
2017-Oct-19 12:59N 37°52' E 023°32'0 0.2
2017-Oct-19 12:30N 37°52' E 023°32'4 7.4
2017-Oct-19 12:00N 37°55' E 023°35'3 5.3
2017-Oct-19 11:30N 37°58' E 023°37'0 0.0
2017-Oct-19 11:00N 37°58' E 023°37'0 0.0
2017-Oct-19 10:30N 37°58' E 023°37'0 0.0
2017-Oct-19 10:00N 37°58' E 023°37'0 0.0
2017-Oct-19 09:30N 37°58' E 023°37'0 0.0
2017-Oct-19 09:01N 37°58' E 023°37'0 0.0
2017-Oct-19 08:30N 37°58' E 023°37'0 0.0
2017-Oct-19 08:00N 37°58' E 023°37'0 0.0
2017-Oct-19 07:30N 37°58' E 023°37'0 0.0
2017-Oct-19 07:00N 37°58' E 023°37'0 0.0
2017-Oct-19 06:31N 37°58' E 023°37'0 0.0
2017-Oct-19 06:00N 37°58' E 023°37'0 0.5
2017-Oct-19 05:30N 37°57' E 023°36'3 6.3
2017-Oct-19 05:00N 37°59' E 023°33'4 7.4
2017-Oct-19 04:30N 38°02' E 023°31'0 0.2
2017-Oct-19 04:00N 38°02' E 023°31'0 0.0
2017-Oct-19 03:31N 38°02' E 023°31'0 0.0
2017-Oct-19 03:00N 38°02' E 023°31'0 0.0
2017-Oct-19 02:30N 38°02' E 023°31'0 0.0
2017-Oct-19 02:00N 38°02' E 023°31'0 0.0
2017-Oct-19 01:30N 38°02' E 023°31'0 0.0
2017-Oct-19 01:00N 38°02' E 023°31'0 0.0
2017-Oct-19 00:30N 38°02' E 023°31'0 0.0
2017-Oct-19 00:00N 38°02' E 023°31'0 0.0
2017-Oct-18 23:30N 38°02' E 023°31'0 0.0
2017-Oct-18 23:00N 38°02' E 023°31'0 0.0
2017-Oct-18 22:30N 38°02' E 023°31'0 0.0
2017-Oct-18 22:00N 38°02' E 023°31'0 0.0
2017-Oct-18 21:30N 38°02' E 023°31'0 0.0
2017-Oct-18 21:00N 38°02' E 023°31'0 0.0
2017-Oct-18 20:30N 38°02' E 023°31'0 0.0
2017-Oct-18 20:00N 38°02' E 023°31'0 0.0
2017-Oct-18 19:30N 38°02' E 023°31'0 0.0
2017-Oct-18 19:00N 38°02' E 023°31'0 0.0
2017-Oct-18 18:30N 38°02' E 023°31'0 0.0
2017-Oct-18 18:00N 38°02' E 023°31'0 0.0
2017-Oct-18 17:30N 38°02' E 023°31'0 0.4
2017-Oct-18 17:00N 38°02' E 023°31'3 6.5
2017-Oct-18 16:30N 37°59' E 023°33'4 8.9
2017-Oct-18 16:00N 37°56' E 023°37'0 0.5
2017-Oct-18 15:30N 37°56' E 023°37'0 0.0
2017-Oct-18 15:00N 37°56' E 023°37'0 0.0
2017-Oct-18 14:00N 37°56' E 023°37'0 0.0
2017-Oct-18 13:30N 37°56' E 023°37'0 0.0
2017-Oct-18 13:00N 37°56' E 023°37'0 0.0
2017-Oct-18 12:30N 37°56' E 023°37'0 0.0
2017-Oct-18 12:01N 37°56' E 023°37'0 0.0
2017-Oct-18 11:30N 37°56' E 023°37'0 0.2
2017-Oct-18 11:00N 37°56' E 023°37'2 4.4
2017-Oct-18 10:30N 37°57' E 023°35'5 9.2
2017-Oct-18 10:00N 38°01' E 023°32'1 2.0
2017-Oct-18 09:30N 38°02' E 023°32'0 0.0
2017-Oct-18 09:00N 38°02' E 023°32'0 0.0
2017-Oct-18 08:30N 38°02' E 023°31'0 0.0
2017-Oct-18 08:00N 38°02' E 023°32'1 1.6
2017-Oct-18 07:30N 38°01' E 023°32'3 5.6
2017-Oct-18 07:01N 38°02' E 023°36'0 0.2
2017-Oct-18 06:30N 38°02' E 023°36'0 0.0
2017-Oct-18 06:00N 38°02' E 023°36'0 0.0
2017-Oct-18 05:30N 38°02' E 023°36'0 0.0
2017-Oct-18 05:00N 38°02' E 023°36'0 0.0
2017-Oct-18 04:30N 38°02' E 023°36'0 0.0
2017-Oct-18 04:00N 38°02' E 023°36'0 0.0
2017-Oct-18 03:30N 38°02' E 023°36'0 0.0
2017-Oct-18 03:00N 38°02' E 023°36'0 0.0
2017-Oct-18 02:30N 38°02' E 023°36'0 0.0
2017-Oct-18 02:00N 38°02' E 023°36'0 0.0
2017-Oct-18 01:30N 38°02' E 023°36'0 0.0
2017-Oct-18 01:00N 38°02' E 023°36'0 0.5
2017-Oct-18 00:30N 38°02' E 023°35'0 0.8
2017-Oct-18 00:00N 38°01' E 023°35'0 0.0
2017-Oct-17 23:30N 38°01' E 023°35'0 0.0
2017-Oct-17 23:00N 38°01' E 023°35'0 0.0
2017-Oct-17 22:30N 38°01' E 023°35'0 0.0
2017-Oct-17 22:00N 38°01' E 023°35'0 0.0
2017-Oct-17 21:30N 38°01' E 023°35'0 0.0
2017-Oct-17 21:01N 38°01' E 023°35'0 0.0
2017-Oct-17 20:31N 38°01' E 023°35'0 0.0
2017-Oct-17 20:00N 38°01' E 023°35'0 0.0
2017-Oct-17 19:30N 38°01' E 023°35'0 0.0
2017-Oct-17 19:00N 38°01' E 023°35'0 0.0
2017-Oct-17 18:30N 38°01' E 023°35'0 0.0
2017-Oct-17 18:00N 38°02' E 023°35'0 0.0
2017-Oct-17 17:30N 38°01' E 023°35'1 2.2
2017-Oct-17 17:00N 38°01' E 023°34'3 7.0
2017-Oct-17 16:30N 37°57' E 023°34'3 5.9
2017-Oct-17 16:00N 37°56' E 023°38'0 0.0
2017-Oct-17 15:19N 37°56' E 023°38'0 0.0
2017-Oct-17 14:59N 37°56' E 023°38'0 0.0
2017-Oct-17 14:28N 37°56' E 023°38'0 0.0
2017-Oct-17 13:56N 37°56' E 023°38'0 0.0
2017-Oct-17 13:30N 37°56' E 023°38'0 0.0
2017-Oct-17 12:58N 37°56' E 023°38'0 0.0
2017-Oct-17 12:29N 37°56' E 023°38'0 0.0
2017-Oct-17 12:00N 37°56' E 023°38'0 0.7
2017-Oct-17 11:26N 37°56' E 023°38'0 0.1
2017-Oct-17 10:58N 37°56' E 023°38'0 0.0
2017-Oct-17 10:24N 37°56' E 023°38'0 0.0
2017-Oct-17 09:57N 37°56' E 023°38'0 0.1
2017-Oct-17 09:31N 37°56' E 023°38'0 0.1
2017-Oct-17 09:00N 37°56' E 023°38'0 0.0
2017-Oct-17 08:30N 37°56' E 023°38'0 0.0
2017-Oct-17 07:55N 37°56' E 023°38'0 0.3
2017-Oct-17 07:30N 37°56' E 023°38'3 5.1
2017-Oct-17 07:00N 37°57' E 023°35'3 6.6
2017-Oct-17 06:30N 37°60' E 023°33'3 5.4
2017-Oct-17 06:00N 38°02' E 023°36'0 0.0
2017-Oct-17 05:30N 38°02' E 023°36'0 0.0
2017-Oct-17 05:00N 38°02' E 023°36'0 0.0
2017-Oct-17 04:30N 38°02' E 023°36'0 0.0
2017-Oct-17 04:00N 38°02' E 023°36'0 0.0
2017-Oct-17 03:30N 38°02' E 023°36'0 0.0
2017-Oct-17 03:00N 38°02' E 023°36'0 0.0
2017-Oct-17 02:30N 38°02' E 023°36'0 0.0
2017-Oct-17 02:00N 38°02' E 023°36'0 0.0
2017-Oct-17 01:30N 38°02' E 023°36'0 0.0
2017-Oct-17 01:00N 38°02' E 023°36'0 0.0
2017-Oct-17 00:30N 38°02' E 023°36'3 5.1
2017-Oct-17 00:00N 38°01' E 023°33'510.7
2017-Oct-16 23:30N 37°60' E 023°26'4 8.3
2017-Oct-16 23:00N 37°56' E 023°23'5 9.2
2017-Oct-16 22:30N 37°52' E 023°26'510.6
2017-Oct-16 22:00N 37°54' E 023°32'4 8.2
2017-Oct-16 21:30N 37°57' E 023°36'0 0.0
2017-Oct-16 21:00N 37°57' E 023°36'0 0.0
2017-Oct-16 20:31N 37°57' E 023°36'0 0.0
2017-Oct-16 20:00N 37°57' E 023°36'0 0.0
2017-Oct-16 19:30N 37°57' E 023°36'0 0.0
2017-Oct-16 19:00N 37°57' E 023°36'0 0.0
2017-Oct-16 18:30N 37°57' E 023°36'0 0.0
2017-Oct-16 18:00N 37°57' E 023°36'0 0.0
2017-Oct-16 17:30N 37°57' E 023°36'0 0.0
2017-Oct-16 17:00N 37°57' E 023°36'0 0.0
2017-Oct-16 16:30N 37°57' E 023°36'0 0.0
2017-Oct-16 16:00N 37°57' E 023°36'0 0.0
2017-Oct-16 15:30N 37°57' E 023°36'0 0.0
2017-Oct-16 15:01N 37°57' E 023°36'0 0.3
2017-Oct-16 14:00N 37°57' E 023°35'0 0.8
2017-Oct-16 13:31N 37°57' E 023°35'0 0.0
2017-Oct-16 13:00N 37°57' E 023°35'0 0.1
2017-Oct-16 12:30N 37°57' E 023°35'0 0.1
2017-Oct-16 12:00N 37°57' E 023°35'0 0.0
2017-Oct-16 11:30N 37°57' E 023°35'0 0.0
2017-Oct-16 11:00N 37°57' E 023°35'0 0.0
2017-Oct-16 10:30N 37°57' E 023°35'0 0.0
2017-Oct-16 10:00N 37°57' E 023°35'0 0.0
2017-Oct-16 09:30N 37°57' E 023°35'0 0.0
2017-Oct-16 09:01N 37°57' E 023°35'2 3.0
2017-Oct-16 08:30N 37°56' E 023°35'5 9.5
2017-Oct-16 07:59N 37°52' E 023°32'0 0.5
2017-Oct-16 07:30N 37°51' E 023°32'0 0.0
2017-Oct-16 07:00N 37°51' E 023°32'0 0.0
2017-Oct-16 06:30N 37°51' E 023°32'0 0.1
2017-Oct-16 06:00N 37°51' E 023°32'0 0.6
2017-Oct-16 05:30N 37°51' E 023°32'5 9.1
2017-Oct-16 05:00N 37°55' E 023°34'3 6.7
2017-Oct-16 04:30N 37°59' E 023°33'3 6.9
2017-Oct-16 04:00N 38°02' E 023°35'0 0.0
2017-Oct-16 03:31N 38°02' E 023°35'0 0.0
2017-Oct-16 03:00N 38°02' E 023°35'0 0.0
2017-Oct-16 02:30N 38°02' E 023°35'0 0.0
2017-Oct-16 02:00N 38°02' E 023°35'0 0.0
2017-Oct-16 01:30N 38°02' E 023°35'0 0.0
2017-Oct-16 01:00N 38°02' E 023°35'0 0.0
2017-Oct-16 00:30N 38°02' E 023°35'0 0.0
2017-Oct-16 00:00N 38°02' E 023°35'0 0.0
2017-Oct-15 23:30N 38°02' E 023°35'0 0.0
2017-Oct-15 23:00N 38°02' E 023°35'0 0.0
2017-Oct-15 22:30N 38°02' E 023°35'0 0.0
2017-Oct-15 22:01N 38°02' E 023°35'1 1.3
2017-Oct-15 21:30N 38°02' E 023°36'0 0.0
2017-Oct-15 21:00N 38°02' E 023°36'0 0.0
2017-Oct-15 20:30N 38°02' E 023°36'0 0.0
2017-Oct-15 20:00N 38°02' E 023°36'0 0.0
2017-Oct-15 19:30N 38°02' E 023°36'0 0.0
2017-Oct-15 19:00N 38°02' E 023°36'1 1.2
2017-Oct-15 18:30N 38°02' E 023°35'0 0.1
2017-Oct-15 18:00N 38°02' E 023°35'1 1.6
2017-Oct-15 17:30N 38°01' E 023°34'3 6.3
2017-Oct-15 17:00N 38°02' E 023°31'0 0.1
2017-Oct-15 16:30N 38°02' E 023°31'0 0.0
2017-Oct-15 16:00N 38°02' E 023°31'0 0.0
2017-Oct-15 15:30N 38°02' E 023°31'0 0.0
2017-Oct-15 15:00N 38°02' E 023°31'0 0.0
2017-Oct-15 14:00N 38°02' E 023°31'0 0.0
2017-Oct-15 13:30N 38°02' E 023°31'0 0.0
2017-Oct-15 13:00N 38°02' E 023°31'1 1.2
2017-Oct-15 12:30N 38°02' E 023°31'0 0.1
2017-Oct-15 12:00N 38°02' E 023°31'0 0.0
2017-Oct-15 11:30N 38°02' E 023°31'0 0.0
2017-Oct-15 11:00N 38°02' E 023°31'0 0.5
2017-Oct-15 10:30N 38°02' E 023°31'4 9.0
2017-Oct-15 10:00N 37°57' E 023°33'4 7.3
2017-Oct-15 09:30N 37°56' E 023°38'0 0.0
2017-Oct-15 09:00N 37°56' E 023°38'0 0.0
2017-Oct-15 08:30N 37°56' E 023°38'0 0.0
2017-Oct-15 08:00N 37°56' E 023°38'0 0.0
2017-Oct-15 07:30N 37°56' E 023°38'0 0.0
2017-Oct-15 07:00N 37°56' E 023°38'0 0.0
2017-Oct-15 06:30N 37°56' E 023°38'0 0.0
2017-Oct-15 06:00N 37°56' E 023°38'0 0.0
2017-Oct-15 05:30N 37°56' E 023°38'1 2.5
2017-Oct-15 05:00N 37°57' E 023°36'1 1.8
2017-Oct-15 04:30N 37°57' E 023°37'0 0.0
2017-Oct-15 04:00N 37°58' E 023°37'0 0.0
2017-Oct-15 03:30N 37°58' E 023°37'0 0.0
2017-Oct-15 03:00N 37°58' E 023°37'0 0.0
2017-Oct-15 02:30N 37°58' E 023°37'0 0.0
2017-Oct-15 02:00N 37°58' E 023°37'0 0.0
2017-Oct-15 01:30N 37°58' E 023°37'0 0.0
2017-Oct-15 01:01N 37°58' E 023°37'0 0.0
2017-Oct-15 00:30N 37°58' E 023°37'0 0.0
2017-Oct-15 00:00N 37°58' E 023°37'0 0.0
2017-Oct-14 23:30N 37°58' E 023°37'0 0.0
2017-Oct-14 23:00N 37°58' E 023°37'0 0.0
2017-Oct-14 22:30N 37°58' E 023°37'0 0.0
2017-Oct-14 22:00N 37°58' E 023°37'0 0.9
2017-Oct-14 21:30N 37°57' E 023°36'5 9.4
2017-Oct-14 21:00N 37°53' E 023°33'3 5.0
2017-Oct-14 20:30N 37°51' E 023°32'0 0.0
2017-Oct-14 20:00N 37°51' E 023°32'0 0.0
2017-Oct-14 19:30N 37°51' E 023°32'0 0.0
2017-Oct-14 19:00N 37°51' E 023°32'0 0.0
2017-Oct-14 18:30N 37°51' E 023°32'0 0.0
2017-Oct-14 18:00N 37°51' E 023°32'0 0.0
2017-Oct-14 17:30N 37°51' E 023°32'0 0.2
2017-Oct-14 17:00N 37°51' E 023°32'0 0.0
2017-Oct-14 16:30N 37°51' E 023°32'0 0.0
2017-Oct-14 16:00N 37°51' E 023°32'0 0.0
2017-Oct-14 15:30N 37°51' E 023°32'0 0.1
2017-Oct-14 15:00N 37°51' E 023°32'3 5.6
2017-Oct-14 14:30N 37°54' E 023°33'4 7.6
2017-Oct-14 14:00N 37°57' E 023°33'4 8.6
2017-Oct-14 13:30N 38°01' E 023°35'1 1.0
2017-Oct-14 13:00N 38°02' E 023°36'0 0.0
2017-Oct-14 12:30N 38°02' E 023°36'0 0.0
2017-Oct-14 12:00N 38°02' E 023°36'0 0.0
2017-Oct-14 11:30N 38°02' E 023°36'0 0.0
2017-Oct-14 11:00N 38°02' E 023°36'0 0.0
2017-Oct-14 10:30N 38°02' E 023°36'0 0.0
2017-Oct-14 10:00N 38°02' E 023°36'1 1.1
2017-Oct-14 09:30N 38°01' E 023°35'0 0.1
2017-Oct-14 09:00N 38°01' E 023°35'0 0.0
2017-Oct-14 08:30N 38°01' E 023°35'0 0.0
2017-Oct-14 08:00N 38°01' E 023°35'0 0.0
2017-Oct-14 07:30N 38°01' E 023°35'0 0.0
2017-Oct-14 07:00N 38°01' E 023°35'0 0.0
2017-Oct-14 06:30N 38°01' E 023°35'0 0.0
2017-Oct-14 06:00N 38°01' E 023°35'0 0.0
2017-Oct-14 05:30N 38°01' E 023°35'0 0.0
2017-Oct-14 05:00N 38°01' E 023°35'0 0.0
2017-Oct-14 04:30N 38°01' E 023°35'0 0.5
2017-Oct-14 04:00N 38°01' E 023°35'4 8.2
2017-Oct-14 03:30N 37°57' E 023°33'3 5.5
2017-Oct-14 03:00N 37°58' E 023°37'0 0.0
2017-Oct-14 02:30N 37°58' E 023°37'0 0.0
2017-Oct-14 02:00N 37°57' E 023°37'0 0.0
2017-Oct-14 01:30N 37°58' E 023°37'0 0.0
2017-Oct-14 01:00N 37°57' E 023°37'0 0.0
2017-Oct-14 00:31N 37°58' E 023°37'0 0.0
2017-Oct-14 00:00N 37°58' E 023°37'0 0.1
2017-Oct-13 23:30N 37°58' E 023°37'2 3.1
2017-Oct-13 23:00N 37°57' E 023°35'5 9.8
2017-Oct-13 22:30N 37°52' E 023°33'0 0.8
2017-Oct-13 22:00N 37°52' E 023°32'0 0.1
2017-Oct-13 21:30N 37°52' E 023°33'0 0.1
2017-Oct-13 21:00N 37°52' E 023°32'0 0.1
2017-Oct-13 20:30N 37°52' E 023°33'0 0.0
2017-Oct-13 20:00N 37°52' E 023°32'0 0.0
2017-Oct-13 19:30N 37°52' E 023°32'2 3.9
2017-Oct-13 19:00N 37°53' E 023°34'4 8.5
2017-Oct-13 18:30N 37°57' E 023°36'1 1.2
2017-Oct-13 18:00N 37°57' E 023°37'0 0.0
2017-Oct-13 17:30N 37°57' E 023°37'0 0.1
2017-Oct-13 17:00N 37°57' E 023°37'0 1.0
2017-Oct-13 16:31N 37°57' E 023°36'0 0.0
2017-Oct-13 16:00N 37°57' E 023°36'0 0.0
2017-Oct-13 15:30N 37°57' E 023°36'0 0.0
2017-Oct-13 15:00N 37°57' E 023°36'0 0.0
2017-Oct-13 14:30N 37°57' E 023°36'0 0.0
2017-Oct-13 14:00N 37°57' E 023°36'0 0.1
2017-Oct-13 13:30N 37°57' E 023°36'1 1.9
2017-Oct-13 13:00N 37°57' E 023°35'0 0.3
2017-Oct-13 12:30N 37°57' E 023°35'0 0.0
2017-Oct-13 12:00N 37°57' E 023°35'0 0.0
2017-Oct-13 11:30N 37°57' E 023°35'0 0.0
2017-Oct-13 11:00N 37°57' E 023°35'0 0.0
2017-Oct-13 10:31N 37°57' E 023°35'0 0.0
2017-Oct-13 10:00N 37°57' E 023°35'0 0.0
2017-Oct-13 09:30N 37°57' E 023°35'0 0.0
2017-Oct-13 09:01N 37°57' E 023°35'0 0.0
2017-Oct-13 08:30N 37°57' E 023°35'0 0.0
2017-Oct-13 08:00N 37°57' E 023°35'0 0.0
2017-Oct-13 07:31N 37°57' E 023°35'0 0.0
2017-Oct-13 07:00N 37°57' E 023°35'0 0.1
2017-Oct-13 06:30N 37°57' E 023°35'2 4.4
2017-Oct-13 06:00N 37°58' E 023°33'4 8.0
2017-Oct-13 05:30N 38°02' E 023°35'0 0.1
2017-Oct-13 05:00N 38°02' E 023°35'0 0.1
2017-Oct-13 04:30N 38°02' E 023°35'0 0.0
2017-Oct-13 04:00N 38°02' E 023°35'0 0.0
2017-Oct-13 03:30N 38°02' E 023°35'0 0.0
2017-Oct-13 03:00N 38°02' E 023°35'0 0.0
2017-Oct-13 02:30N 38°02' E 023°35'0 0.0
2017-Oct-13 02:00N 38°02' E 023°35'0 0.1
2017-Oct-13 01:31N 38°02' E 023°35'0 0.0
2017-Oct-13 01:01N 38°02' E 023°35'0 0.0
2017-Oct-13 00:30N 38°02' E 023°35'0 0.0
2017-Oct-13 00:00N 38°02' E 023°35'0 0.0
2017-Oct-12 23:30N 38°02' E 023°35'0 0.0
2017-Oct-12 23:01N 38°02' E 023°35'0 0.0
2017-Oct-12 22:30N 38°02' E 023°35'0 0.0
2017-Oct-12 22:00N 38°02' E 023°35'0 0.0
2017-Oct-12 21:30N 38°02' E 023°35'0 0.6
2017-Oct-12 21:00N 38°01' E 023°35'0 0.0
2017-Oct-12 20:30N 38°01' E 023°35'0 0.0
2017-Oct-12 20:00N 38°01' E 023°35'0 0.0
2017-Oct-12 19:30N 38°01' E 023°35'0 0.6
2017-Oct-12 19:00N 38°02' E 023°35'0 0.0
2017-Oct-12 18:30N 38°02' E 023°35'0 0.0
2017-Oct-12 18:00N 38°02' E 023°35'0 0.1
2017-Oct-12 17:30N 38°02' E 023°35'0 0.0
2017-Oct-12 17:01N 38°02' E 023°35'0 0.0
2017-Oct-12 16:30N 38°02' E 023°35'0 0.0
2017-Oct-12 16:00N 38°02' E 023°35'0 0.0
2017-Oct-12 15:30N 38°02' E 023°35'0 0.0
2017-Oct-12 15:00N 38°02' E 023°35'0 0.0
2017-Oct-12 14:30N 38°02' E 023°35'0 0.0
2017-Oct-12 14:01N 38°02' E 023°35'1 1.2
2017-Oct-12 13:30N 38°02' E 023°36'0 0.2
2017-Oct-12 13:00N 38°02' E 023°36'0 0.0
2017-Oct-12 12:30N 38°02' E 023°36'0 0.0
2017-Oct-12 12:00N 38°02' E 023°36'0 0.0
2017-Oct-12 11:30N 38°02' E 023°36'0 0.0
2017-Oct-12 11:00N 38°02' E 023°36'0 0.0
2017-Oct-12 10:30N 38°02' E 023°36'0 0.0
2017-Oct-12 10:00N 38°02' E 023°36'0 0.0
2017-Oct-12 09:31N 38°02' E 023°36'0 0.0
2017-Oct-12 09:00N 38°02' E 023°36'0 0.0
2017-Oct-12 08:30N 38°02' E 023°36'0 0.0
2017-Oct-12 08:00N 38°02' E 023°36'0 0.0
2017-Oct-12 07:30N 38°02' E 023°36'0 0.3
2017-Oct-12 07:00N 38°02' E 023°36'4 8.6
2017-Oct-12 06:30N 37°58' E 023°33'3 6.2
2017-Oct-12 06:00N 37°58' E 023°37'0 0.0
2017-Oct-12 04:13N 37°57' E 023°37'0 1.8
2017-Oct-12 04:00N 37°57' E 023°36'4 8.9
2017-Oct-12 03:30N 37°53' E 023°38'611.2
2017-Oct-12 03:00N 37°48' E 023°41'610.9
2017-Oct-12 02:30N 37°43' E 023°44'6 0.1
2017-Oct-10 10:04N 37°37' E 023°44'110.8
2017-Oct-10 10:00N 37°38' E 023°43'510.8
2017-Oct-10 09:31N 37°43' E 023°41'510.7
2017-Oct-10 09:01N 37°48' E 023°38'510.4
2017-Oct-10 08:30N 37°53' E 023°36'5 9.2
2017-Oct-10 08:00N 37°57' E 023°36'0 0.7
2017-Oct-10 07:30N 37°58' E 023°37'0 0.0
2017-Oct-10 07:00N 37°58' E 023°37'  
Track history (hours):
 
Tides and Currents Weather Stations Pressure Air Temp Water Temp Dewpoint Dewpoint Depression Visibility Wind Speed Wind Dir Waves Ship Positions

Alexandra G

Last reported at 2017-Oct-20 07:00 UTC. Time now 2017-Oct-20 07:23 UTC.
Position N 37°57' E 023°38'.

Length 74 m; draft 3.7 m.

Type: Ship (hazmat cat A). MMSI: 240688000.

Date/timePositionNaut miles runAvg speedWind from/ knotsBaromVisibWave heightAir tempDewpointWater temp
2017-Oct-20 07:00N 37°57' E 023°38'0 0.0
2017-Oct-20 06:30N 37°57' E 023°38'0 0.0
2017-Oct-20 06:00N 37°57' E 023°38'2 3.7
2017-Oct-20 05:30N 37°57' E 023°36'1 1.8
2017-Oct-20 05:00N 37°58' E 023°37'0 0.0
2017-Oct-20 04:31N 37°58' E 023°37'0 0.0
2017-Oct-20 04:00N 37°58' E 023°37'0 0.0
2017-Oct-20 03:30N 37°58' E 023°37'0 0.0
2017-Oct-20 03:00N 37°58' E 023°37'0 0.0
2017-Oct-20 02:30N 37°58' E 023°37'0 0.0
2017-Oct-20 02:00N 37°58' E 023°37'0 0.0
2017-Oct-20 01:30N 37°58' E 023°37'0 0.0
2017-Oct-20 01:00N 37°58' E 023°37'0 0.0
2017-Oct-20 00:30N 37°58' E 023°37'0 0.0
2017-Oct-20 00:00N 37°58' E 023°37'0 0.0
2017-Oct-19 23:30N 37°58' E 023°37'0 0.0
2017-Oct-19 23:00N 37°58' E 023°37'0 0.0
2017-Oct-19 22:30N 37°58' E 023°37'0 0.0
2017-Oct-19 22:00N 37°58' E 023°37'0 0.0
2017-Oct-19 21:30N 37°58' E 023°37'0 0.0
2017-Oct-19 21:00N 37°58' E 023°37'0 0.0
2017-Oct-19 20:30N 37°58' E 023°37'0 0.0
2017-Oct-19 20:01N 37°58' E 023°37'0 0.0
2017-Oct-19 19:30N 37°58' E 023°37'0 0.0
2017-Oct-19 19:00N 37°58' E 023°37'0 0.0
2017-Oct-19 18:31N 37°58' E 023°37'0 0.0
2017-Oct-19 18:00N 37°58' E 023°37'0 0.0
2017-Oct-19 17:30N 37°58' E 023°37'0 0.0
2017-Oct-19 17:00N 37°58' E 023°37'0 0.0
2017-Oct-19 16:30N 37°58' E 023°37'0 0.0
2017-Oct-19 16:00N 37°58' E 023°37'0 0.0
2017-Oct-19 15:30N 37°58' E 023°37'3 5.1
2017-Oct-19 15:00N 37°56' E 023°34'4 7.8
2017-Oct-19 14:30N 37°52' E 023°32'0 0.0
2017-Oct-19 14:00N 37°52' E 023°32'0 0.1
2017-Oct-19 13:30N 37°52' E 023°32'0 0.0
2017-Oct-19 12:59N 37°52' E 023°32'0 0.2
2017-Oct-19 12:30N 37°52' E 023°32'4 7.4
2017-Oct-19 12:00N 37°55' E 023°35'3 5.3
2017-Oct-19 11:30N 37°58' E 023°37'0 0.0
2017-Oct-19 11:00N 37°58' E 023°37'0 0.0
2017-Oct-19 10:30N 37°58' E 023°37'0 0.0
2017-Oct-19 10:00N 37°58' E 023°37'0 0.0
2017-Oct-19 09:30N 37°58' E 023°37'0 0.0
2017-Oct-19 09:01N 37°58' E 023°37'0 0.0
2017-Oct-19 08:30N 37°58' E 023°37'0 0.0
2017-Oct-19 08:00N 37°58' E 023°37'0 0.0
2017-Oct-19 07:30N 37°58' E 023°37'0 0.0
2017-Oct-19 07:00N 37°58' E 023°37'0 0.0
2017-Oct-19 06:31N 37°58' E 023°37'0 0.0
2017-Oct-19 06:00N 37°58' E 023°37'0 0.5
2017-Oct-19 05:30N 37°57' E 023°36'3 6.3
2017-Oct-19 05:00N 37°59' E 023°33'4 7.4
2017-Oct-19 04:30N 38°02' E 023°31'0 0.2
2017-Oct-19 04:00N 38°02' E 023°31'0 0.0
2017-Oct-19 03:31N 38°02' E 023°31'0 0.0
2017-Oct-19 03:00N 38°02' E 023°31'0 0.0
2017-Oct-19 02:30N 38°02' E 023°31'0 0.0
2017-Oct-19 02:00N 38°02' E 023°31'0 0.0
2017-Oct-19 01:30N 38°02' E 023°31'0 0.0
2017-Oct-19 01:00N 38°02' E 023°31'0 0.0
2017-Oct-19 00:30N 38°02' E 023°31'0 0.0
2017-Oct-19 00:00N 38°02' E 023°31'0 0.0
2017-Oct-18 23:30N 38°02' E 023°31'0 0.0
2017-Oct-18 23:00N 38°02' E 023°31'0 0.0
2017-Oct-18 22:30N 38°02' E 023°31'0 0.0
2017-Oct-18 22:00N 38°02' E 023°31'0 0.0
2017-Oct-18 21:30N 38°02' E 023°31'0 0.0
2017-Oct-18 21:00N 38°02' E 023°31'0 0.0
2017-Oct-18 20:30N 38°02' E 023°31'0 0.0
2017-Oct-18 20:00N 38°02' E 023°31'0 0.0
2017-Oct-18 19:30N 38°02' E 023°31'0 0.0
2017-Oct-18 19:00N 38°02' E 023°31'0 0.0
2017-Oct-18 18:30N 38°02' E 023°31'0 0.0
2017-Oct-18 18:00N 38°02' E 023°31'0 0.0
2017-Oct-18 17:30N 38°02' E 023°31'0 0.4
2017-Oct-18 17:00N 38°02' E 023°31'3 6.5
2017-Oct-18 16:30N 37°59' E 023°33'4 8.9
2017-Oct-18 16:00N 37°56' E 023°37'0 0.5
2017-Oct-18 15:30N 37°56' E 023°37'0 0.0
2017-Oct-18 15:00N 37°56' E 023°37'0 0.0
2017-Oct-18 14:00N 37°56' E 023°37'0 0.0
2017-Oct-18 13:30N 37°56' E 023°37'0 0.0
2017-Oct-18 13:00N 37°56' E 023°37'0 0.0
2017-Oct-18 12:30N 37°56' E 023°37'0 0.0
2017-Oct-18 12:01N 37°56' E 023°37'0 0.0
2017-Oct-18 11:30N 37°56' E 023°37'0 0.2
2017-Oct-18 11:00N 37°56' E 023°37'2 4.4
2017-Oct-18 10:30N 37°57' E 023°35'5 9.2
2017-Oct-18 10:00N 38°01' E 023°32'1 2.0
2017-Oct-18 09:30N 38°02' E 023°32'0 0.0
2017-Oct-18 09:00N 38°02' E 023°32'0 0.0
2017-Oct-18 08:30N 38°02' E 023°31'0 0.0
2017-Oct-18 08:00N 38°02' E 023°32'1 1.6
2017-Oct-18 07:30N 38°01' E 023°32'3 5.6
2017-Oct-18 07:01N 38°02' E 023°36'0 0.2
2017-Oct-18 06:30N 38°02' E 023°36'0 0.0
2017-Oct-18 06:00N 38°02' E 023°36'0 0.0
2017-Oct-18 05:30N 38°02' E 023°36'0 0.0
2017-Oct-18 05:00N 38°02' E 023°36'0 0.0
2017-Oct-18 04:30N 38°02' E 023°36'0 0.0
2017-Oct-18 04:00N 38°02' E 023°36'0 0.0
2017-Oct-18 03:30N 38°02' E 023°36'0 0.0
2017-Oct-18 03:00N 38°02' E 023°36'0 0.0
2017-Oct-18 02:30N 38°02' E 023°36'0 0.0
2017-Oct-18 02:00N 38°02' E 023°36'0 0.0
2017-Oct-18 01:30N 38°02' E 023°36'0 0.0
2017-Oct-18 01:00N 38°02' E 023°36'0 0.5
2017-Oct-18 00:30N 38°02' E 023°35'0 0.8
2017-Oct-18 00:00N 38°01' E 023°35'0 0.0
2017-Oct-17 23:30N 38°01' E 023°35'0 0.0
2017-Oct-17 23:00N 38°01' E 023°35'0 0.0
2017-Oct-17 22:30N 38°01' E 023°35'0 0.0
2017-Oct-17 22:00N 38°01' E 023°35'0 0.0
2017-Oct-17 21:30N 38°01' E 023°35'0 0.0
2017-Oct-17 21:01N 38°01' E 023°35'0 0.0
2017-Oct-17 20:31N 38°01' E 023°35'0 0.0
2017-Oct-17 20:00N 38°01' E 023°35'0 0.0
2017-Oct-17 19:30N 38°01' E 023°35'0 0.0
2017-Oct-17 19:00N 38°01' E 023°35'0 0.0
2017-Oct-17 18:30N 38°01' E 023°35'0 0.0
2017-Oct-17 18:00N 38°02' E 023°35'0 0.0
2017-Oct-17 17:30N 38°01' E 023°35'1 2.2
2017-Oct-17 17:00N 38°01' E 023°34'3 7.0
2017-Oct-17 16:30N 37°57' E 023°34'3 5.9
2017-Oct-17 16:00N 37°56' E 023°38'0 0.0
2017-Oct-17 15:19N 37°56' E 023°38'0 0.0
2017-Oct-17 14:59N 37°56' E 023°38'0 0.0
2017-Oct-17 14:28N 37°56' E 023°38'0 0.0
2017-Oct-17 13:56N 37°56' E 023°38'0 0.0
2017-Oct-17 13:30N 37°56' E 023°38'0 0.0
2017-Oct-17 12:58N 37°56' E 023°38'0 0.0
2017-Oct-17 12:29N 37°56' E 023°38'0 0.0
2017-Oct-17 12:00N 37°56' E 023°38'0 0.7
2017-Oct-17 11:26N 37°56' E 023°38'0 0.1
2017-Oct-17 10:58N 37°56' E 023°38'0 0.0
2017-Oct-17 10:24N 37°56' E 023°38'0 0.0
2017-Oct-17 09:57N 37°56' E 023°38'0 0.1
2017-Oct-17 09:31N 37°56' E 023°38'0 0.1
2017-Oct-17 09:00N 37°56' E 023°38'0 0.0
2017-Oct-17 08:30N 37°56' E 023°38'0 0.0
2017-Oct-17 07:55N 37°56' E 023°38'0 0.3
2017-Oct-17 07:30N 37°56' E 023°38'3 5.1
2017-Oct-17 07:00N 37°57' E 023°35'3 6.6
2017-Oct-17 06:30N 37°60' E 023°33'3 5.4
2017-Oct-17 06:00N 38°02' E 023°36'0 0.0
2017-Oct-17 05:30N 38°02' E 023°36'0 0.0
2017-Oct-17 05:00N 38°02' E 023°36'0 0.0
2017-Oct-17 04:30N 38°02' E 023°36'0 0.0
2017-Oct-17 04:00N 38°02' E 023°36'0 0.0
2017-Oct-17 03:30N 38°02' E 023°36'0 0.0
2017-Oct-17 03:00N 38°02' E 023°36'0 0.0
2017-Oct-17 02:30N 38°02' E 023°36'0 0.0
2017-Oct-17 02:00N 38°02' E 023°36'0 0.0
2017-Oct-17 01:30N 38°02' E 023°36'0 0.0
2017-Oct-17 01:00N 38°02' E 023°36'0 0.0
2017-Oct-17 00:30N 38°02' E 023°36'3 5.1
2017-Oct-17 00:00N 38°01' E 023°33'510.7
2017-Oct-16 23:30N 37°60' E 023°26'4 8.3
2017-Oct-16 23:00N 37°56' E 023°23'5 9.2
2017-Oct-16 22:30N 37°52' E 023°26'510.6
2017-Oct-16 22:00N 37°54' E 023°32'4 8.2
2017-Oct-16 21:30N 37°57' E 023°36'0 0.0
2017-Oct-16 21:00N 37°57' E 023°36'0 0.0
2017-Oct-16 20:31N 37°57' E 023°36'0 0.0
2017-Oct-16 20:00N 37°57' E 023°36'0 0.0
2017-Oct-16 19:30N 37°57' E 023°36'0 0.0
2017-Oct-16 19:00N 37°57' E 023°36'0 0.0
2017-Oct-16 18:30N 37°57' E 023°36'0 0.0
2017-Oct-16 18:00N 37°57' E 023°36'0 0.0
2017-Oct-16 17:30N 37°57' E 023°36'0 0.0
2017-Oct-16 17:00N 37°57' E 023°36'0 0.0
2017-Oct-16 16:30N 37°57' E 023°36'0 0.0
2017-Oct-16 16:00N 37°57' E 023°36'0 0.0
2017-Oct-16 15:30N 37°57' E 023°36'0 0.0
2017-Oct-16 15:01N 37°57' E 023°36'0 0.3
2017-Oct-16 14:00N 37°57' E 023°35'0 0.8
2017-Oct-16 13:31N 37°57' E 023°35'0 0.0
2017-Oct-16 13:00N 37°57' E 023°35'0 0.1
2017-Oct-16 12:30N 37°57' E 023°35'0 0.1
2017-Oct-16 12:00N 37°57' E 023°35'0 0.0
2017-Oct-16 11:30N 37°57' E 023°35'0 0.0
2017-Oct-16 11:00N 37°57' E 023°35'0 0.0
2017-Oct-16 10:30N 37°57' E 023°35'0 0.0
2017-Oct-16 10:00N 37°57' E 023°35'0 0.0
2017-Oct-16 09:30N 37°57' E 023°35'0 0.0
2017-Oct-16 09:01N 37°57' E 023°35'2 3.0
2017-Oct-16 08:30N 37°56' E 023°35'5 9.5
2017-Oct-16 07:59N 37°52' E 023°32'0 0.5
2017-Oct-16 07:30N 37°51' E 023°32'0 0.0
2017-Oct-16 07:00N 37°51' E 023°32'0 0.0
2017-Oct-16 06:30N 37°51' E 023°32'0 0.1
2017-Oct-16 06:00N 37°51' E 023°32'0 0.6
2017-Oct-16 05:30N 37°51' E 023°32'5 9.1
2017-Oct-16 05:00N 37°55' E 023°34'3 6.7
2017-Oct-16 04:30N 37°59' E 023°33'3 6.9
2017-Oct-16 04:00N 38°02' E 023°35'0 0.0
2017-Oct-16 03:31N 38°02' E 023°35'0 0.0
2017-Oct-16 03:00N 38°02' E 023°35'0 0.0
2017-Oct-16 02:30N 38°02' E 023°35'0 0.0
2017-Oct-16 02:00N 38°02' E 023°35'0 0.0
2017-Oct-16 01:30N 38°02' E 023°35'0 0.0
2017-Oct-16 01:00N 38°02' E 023°35'0 0.0
2017-Oct-16 00:30N 38°02' E 023°35'0 0.0
2017-Oct-16 00:00N 38°02' E 023°35'0 0.0
2017-Oct-15 23:30N 38°02' E 023°35'0 0.0
2017-Oct-15 23:00N 38°02' E 023°35'0 0.0
2017-Oct-15 22:30N 38°02' E 023°35'0 0.0
2017-Oct-15 22:01N 38°02' E 023°35'1 1.3
2017-Oct-15 21:30N 38°02' E 023°36'0 0.0
2017-Oct-15 21:00N 38°02' E 023°36'0 0.0
2017-Oct-15 20:30N 38°02' E 023°36'0 0.0
2017-Oct-15 20:00N 38°02' E 023°36'0 0.0
2017-Oct-15 19:30N 38°02' E 023°36'0 0.0
2017-Oct-15 19:00N 38°02' E 023°36'1 1.2
2017-Oct-15 18:30N 38°02' E 023°35'0 0.1
2017-Oct-15 18:00N 38°02' E 023°35'1 1.6
2017-Oct-15 17:30N 38°01' E 023°34'3 6.3
2017-Oct-15 17:00N 38°02' E 023°31'0 0.1
2017-Oct-15 16:30N 38°02' E 023°31'0 0.0
2017-Oct-15 16:00N 38°02' E 023°31'0 0.0
2017-Oct-15 15:30N 38°02' E 023°31'0 0.0
2017-Oct-15 15:00N 38°02' E 023°31'0 0.0
2017-Oct-15 14:00N 38°02' E 023°31'0 0.0
2017-Oct-15 13:30N 38°02' E 023°31'0 0.0
2017-Oct-15 13:00N 38°02' E 023°31'1 1.2
2017-Oct-15 12:30N 38°02' E 023°31'0 0.1
2017-Oct-15 12:00N 38°02' E 023°31'0 0.0
2017-Oct-15 11:30N 38°02' E 023°31'0 0.0
2017-Oct-15 11:00N 38°02' E 023°31'0 0.5
2017-Oct-15 10:30N 38°02' E 023°31'4 9.0
2017-Oct-15 10:00N 37°57' E 023°33'4 7.3
2017-Oct-15 09:30N 37°56' E 023°38'0 0.0
2017-Oct-15 09:00N 37°56' E 023°38'0 0.0
2017-Oct-15 08:30N 37°56' E 023°38'0 0.0
2017-Oct-15 08:00N 37°56' E 023°38'0 0.0
2017-Oct-15 07:30N 37°56' E 023°38'0 0.0
2017-Oct-15 07:00N 37°56' E 023°38'0 0.0
2017-Oct-15 06:30N 37°56' E 023°38'0 0.0
2017-Oct-15 06:00N 37°56' E 023°38'0 0.0
2017-Oct-15 05:30N 37°56' E 023°38'1 2.5
2017-Oct-15 05:00N 37°57' E 023°36'1 1.8
2017-Oct-15 04:30N 37°57' E 023°37'0 0.0
2017-Oct-15 04:00N 37°58' E 023°37'0 0.0
2017-Oct-15 03:30N 37°58' E 023°37'0 0.0
2017-Oct-15 03:00N 37°58' E 023°37'0 0.0
2017-Oct-15 02:30N 37°58' E 023°37'0 0.0
2017-Oct-15 02:00N 37°58' E 023°37'0 0.0
2017-Oct-15 01:30N 37°58' E 023°37'0 0.0
2017-Oct-15 01:01N 37°58' E 023°37'0 0.0
2017-Oct-15 00:30N 37°58' E 023°37'0 0.0
2017-Oct-15 00:00N 37°58' E 023°37'0 0.0
2017-Oct-14 23:30N 37°58' E 023°37'0 0.0
2017-Oct-14 23:00N 37°58' E 023°37'0 0.0
2017-Oct-14 22:30N 37°58' E 023°37'0 0.0
2017-Oct-14 22:00N 37°58' E 023°37'0 0.9
2017-Oct-14 21:30N 37°57' E 023°36'5 9.4
2017-Oct-14 21:00N 37°53' E 023°33'3 5.0
2017-Oct-14 20:30N 37°51' E 023°32'0 0.0
2017-Oct-14 20:00N 37°51' E 023°32'0 0.0
2017-Oct-14 19:30N 37°51' E 023°32'0 0.0
2017-Oct-14 19:00N 37°51' E 023°32'0 0.0
2017-Oct-14 18:30N 37°51' E 023°32'0 0.0
2017-Oct-14 18:00N 37°51' E 023°32'0 0.0
2017-Oct-14 17:30N 37°51' E 023°32'0 0.2
2017-Oct-14 17:00N 37°51' E 023°32'0 0.0
2017-Oct-14 16:30N 37°51' E 023°32'0 0.0
2017-Oct-14 16:00N 37°51' E 023°32'0 0.0
2017-Oct-14 15:30N 37°51' E 023°32'0 0.1
2017-Oct-14 15:00N 37°51' E 023°32'3 5.6
2017-Oct-14 14:30N 37°54' E 023°33'4 7.6
2017-Oct-14 14:00N 37°57' E 023°33'4 8.6
2017-Oct-14 13:30N 38°01' E 023°35'1 1.0
2017-Oct-14 13:00N 38°02' E 023°36'0 0.0
2017-Oct-14 12:30N 38°02' E 023°36'0 0.0
2017-Oct-14 12:00N 38°02' E 023°36'0 0.0
2017-Oct-14 11:30N 38°02' E 023°36'0 0.0
2017-Oct-14 11:00N 38°02' E 023°36'0 0.0
2017-Oct-14 10:30N 38°02' E 023°36'0 0.0
2017-Oct-14 10:00N 38°02' E 023°36'1 1.1
2017-Oct-14 09:30N 38°01' E 023°35'0 0.1
2017-Oct-14 09:00N 38°01' E 023°35'0 0.0
2017-Oct-14 08:30N 38°01' E 023°35'0 0.0
2017-Oct-14 08:00N 38°01' E 023°35'0 0.0
2017-Oct-14 07:30N 38°01' E 023°35'0 0.0
2017-Oct-14 07:00N 38°01' E 023°35'0 0.0
2017-Oct-14 06:30N 38°01' E 023°35'0 0.0
2017-Oct-14 06:00N 38°01' E 023°35'0 0.0
2017-Oct-14 05:30N 38°01' E 023°35'0 0.0
2017-Oct-14 05:00N 38°01' E 023°35'0 0.0
2017-Oct-14 04:30N 38°01' E 023°35'0 0.5
2017-Oct-14 04:00N 38°01' E 023°35'4 8.2
2017-Oct-14 03:30N 37°57' E 023°33'3 5.5
2017-Oct-14 03:00N 37°58' E 023°37'0 0.0
2017-Oct-14 02:30N 37°58' E 023°37'0 0.0
2017-Oct-14 02:00N 37°57' E 023°37'0 0.0
2017-Oct-14 01:30N 37°58' E 023°37'0 0.0
2017-Oct-14 01:00N 37°57' E 023°37'0 0.0
2017-Oct-14 00:31N 37°58' E 023°37'0 0.0
2017-Oct-14 00:00N 37°58' E 023°37'0 0.1
2017-Oct-13 23:30N 37°58' E 023°37'2 3.1
2017-Oct-13 23:00N 37°57' E 023°35'5 9.8
2017-Oct-13 22:30N 37°52' E 023°33'0 0.8
2017-Oct-13 22:00N 37°52' E 023°32'0 0.1
2017-Oct-13 21:30N 37°52' E 023°33'0 0.1
2017-Oct-13 21:00N 37°52' E 023°32'0 0.1
2017-Oct-13 20:30N 37°52' E 023°33'0 0.0
2017-Oct-13 20:00N 37°52' E 023°32'0 0.0
2017-Oct-13 19:30N 37°52' E 023°32'2 3.9
2017-Oct-13 19:00N 37°53' E 023°34'4 8.5
2017-Oct-13 18:30N 37°57' E 023°36'1 1.2
2017-Oct-13 18:00N 37°57' E 023°37'0 0.0
2017-Oct-13 17:30N 37°57' E 023°37'0 0.1
2017-Oct-13 17:00N 37°57' E 023°37'0 1.0
2017-Oct-13 16:31N 37°57' E 023°36'0 0.0
2017-Oct-13 16:00N 37°57' E 023°36'0 0.0
2017-Oct-13 15:30N 37°57' E 023°36'0 0.0
2017-Oct-13 15:00N 37°57' E 023°36'0 0.0
2017-Oct-13 14:30N 37°57' E 023°36'0 0.0
2017-Oct-13 14:00N 37°57' E 023°36'0 0.1
2017-Oct-13 13:30N 37°57' E 023°36'1 1.9
2017-Oct-13 13:00N 37°57' E 023°35'0 0.3
2017-Oct-13 12:30N 37°57' E 023°35'0 0.0
2017-Oct-13 12:00N 37°57' E 023°35'0 0.0
2017-Oct-13 11:30N 37°57' E 023°35'0 0.0
2017-Oct-13 11:00N 37°57' E 023°35'0 0.0
2017-Oct-13 10:31N 37°57' E 023°35'0 0.0
2017-Oct-13 10:00N 37°57' E 023°35'0 0.0
2017-Oct-13 09:30N 37°57' E 023°35'0 0.0
2017-Oct-13 09:01N 37°57' E 023°35'0 0.0
2017-Oct-13 08:30N 37°57' E 023°35'0 0.0
2017-Oct-13 08:00N 37°57' E 023°35'0 0.0
2017-Oct-13 07:31N 37°57' E 023°35'0 0.0
2017-Oct-13 07:00N 37°57' E 023°35'0 0.1
2017-Oct-13 06:30N 37°57' E 023°35'2 4.4
2017-Oct-13 06:00N 37°58' E 023°33'4 8.0
2017-Oct-13 05:30N 38°02' E 023°35'0 0.1
2017-Oct-13 05:00N 38°02' E 023°35'0 0.1
2017-Oct-13 04:30N 38°02' E 023°35'0 0.0
2017-Oct-13 04:00N 38°02' E 023°35'0 0.0
2017-Oct-13 03:30N 38°02' E 023°35'0 0.0
2017-Oct-13 03:00N 38°02' E 023°35'0 0.0
2017-Oct-13 02:30N 38°02' E 023°35'0 0.0
2017-Oct-13 02:00N 38°02' E 023°35'0 0.1
2017-Oct-13 01:31N 38°02' E 023°35'0 0.0
2017-Oct-13 01:01N 38°02' E 023°35'0 0.0
2017-Oct-13 00:30N 38°02' E 023°35'0 0.0
2017-Oct-13 00:00N 38°02' E 023°35'0 0.0
2017-Oct-12 23:30N 38°02' E 023°35'0 0.0
2017-Oct-12 23:01N 38°02' E 023°35'0 0.0
2017-Oct-12 22:30N 38°02' E 023°35'0 0.0
2017-Oct-12 22:00N 38°02' E 023°35'0 0.0
2017-Oct-12 21:30N 38°02' E 023°35'0 0.6
2017-Oct-12 21:00N 38°01' E 023°35'0 0.0
2017-Oct-12 20:30N 38°01' E 023°35'0 0.0
2017-Oct-12 20:00N 38°01' E 023°35'0 0.0
2017-Oct-12 19:30N 38°01' E 023°35'0 0.6
2017-Oct-12 19:00N 38°02' E 023°35'0 0.0
2017-Oct-12 18:30N 38°02' E 023°35'0 0.0
2017-Oct-12 18:00N 38°02' E 023°35'0 0.1
2017-Oct-12 17:30N 38°02' E 023°35'0 0.0
2017-Oct-12 17:01N 38°02' E 023°35'0 0.0
2017-Oct-12 16:30N 38°02' E 023°35'0 0.0
2017-Oct-12 16:00N 38°02' E 023°35'0 0.0
2017-Oct-12 15:30N 38°02' E 023°35'0 0.0
2017-Oct-12 15:00N 38°02' E 023°35'0 0.0
2017-Oct-12 14:30N 38°02' E 023°35'0 0.0
2017-Oct-12 14:01N 38°02' E 023°35'1 1.2
2017-Oct-12 13:30N 38°02' E 023°36'0 0.2
2017-Oct-12 13:00N 38°02' E 023°36'0 0.0
2017-Oct-12 12:30N 38°02' E 023°36'0 0.0
2017-Oct-12 12:00N 38°02' E 023°36'0 0.0
2017-Oct-12 11:30N 38°02' E 023°36'0 0.0
2017-Oct-12 11:00N 38°02' E 023°36'0 0.0
2017-Oct-12 10:30N 38°02' E 023°36'0 0.0
2017-Oct-12 10:00N 38°02' E 023°36'0 0.0
2017-Oct-12 09:31N 38°02' E 023°36'0 0.0
2017-Oct-12 09:00N 38°02' E 023°36'0 0.0
2017-Oct-12 08:30N 38°02' E 023°36'0 0.0
2017-Oct-12 08:00N 38°02' E 023°36'0 0.0
2017-Oct-12 07:30N 38°02' E 023°36'0 0.3
2017-Oct-12 07:00N 38°02' E 023°36'4 8.6
2017-Oct-12 06:30N 37°58' E 023°33'3 6.2
2017-Oct-12 06:00N 37°58' E 023°37'0 0.0
2017-Oct-12 04:13N 37°57' E 023°37'0 1.8
2017-Oct-12 04:00N 37°57' E 023°36'4 8.9
2017-Oct-12 03:30N 37°53' E 023°38'611.2
2017-Oct-12 03:00N 37°48' E 023°41'610.9
2017-Oct-12 02:30N 37°43' E 023°44'6 0.1
2017-Oct-10 10:04N 37°37' E 023°44'110.8
2017-Oct-10 10:00N 37°38' E 023°43'510.8
2017-Oct-10 09:31N 37°43' E 023°41'510.7
2017-Oct-10 09:01N 37°48' E 023°38'510.4
2017-Oct-10 08:30N 37°53' E 023°36'5 9.2
2017-Oct-10 08:00N 37°57' E 023°36'0 0.7
2017-Oct-10 07:30N 37°58' E 023°37'0 0.0
2017-Oct-10 07:00N 37°58' E 023°37'  

Dump ship's entire track history